createdAt,value
2019-05-18T00:00:23.504Z,4.57
2019-05-18T00:02:51.934Z,4.37
2019-05-18T00:05:20.465Z,4.23
2019-05-18T00:07:48.925Z,4.47
2019-05-18T00:10:17.600Z,4.13
2019-05-18T00:12:46.143Z,4.40
2019-05-18T00:15:14.741Z,4.33
2019-05-18T00:17:43.251Z,4.13
2019-05-18T00:20:12.670Z,3.93
2019-05-18T00:22:41.108Z,4.10
2019-05-18T00:25:10.424Z,4.20
2019-05-18T00:27:38.927Z,4.37
2019-05-18T00:30:08.675Z,4.60
2019-05-18T00:32:37.478Z,4.20
2019-05-18T00:35:07.509Z,4.37
2019-05-18T00:37:36.051Z,4.17
2019-05-18T00:40:06.902Z,4.83
2019-05-18T00:42:35.315Z,4.43
2019-05-18T00:45:05.493Z,3.93
2019-05-18T00:47:41.543Z,4.13
2019-05-18T00:50:05.339Z,4.53
2019-05-18T00:52:33.797Z,4.67
2019-05-18T00:55:02.356Z,5.03
2019-05-18T00:57:30.776Z,5.67
2019-05-18T00:59:59.228Z,5.60
2019-05-18T01:02:27.713Z,5.70
2019-05-18T01:04:56.164Z,4.93
2019-05-18T01:07:24.612Z,5.47
2019-05-18T01:09:53.048Z,5.67
2019-05-18T01:12:21.501Z,4.83
2019-05-18T01:14:49.929Z,5.70
2019-05-18T01:17:18.376Z,4.87
2019-05-18T01:19:46.816Z,5.97
2019-05-18T01:22:15.272Z,5.37
2019-05-18T01:24:43.729Z,5.10
2019-05-18T01:27:12.504Z,5.20
2019-05-18T01:29:40.966Z,4.53
2019-05-18T01:32:09.426Z,4.63
2019-05-18T01:34:38.032Z,4.40
2019-05-18T01:37:06.608Z,4.40
2019-05-18T01:39:35.061Z,4.23
2019-05-18T01:42:03.485Z,4.00
2019-05-18T01:44:31.946Z,4.30
2019-05-18T01:47:00.439Z,4.27
2019-05-18T01:49:28.884Z,4.47
2019-05-18T01:51:57.484Z,4.20
2019-05-18T01:54:25.962Z,4.33
2019-05-18T01:56:54.641Z,4.80
2019-05-18T01:59:23.140Z,4.77
2019-05-18T02:01:51.580Z,4.37
2019-05-18T02:04:20.021Z,4.20
2019-05-18T02:06:48.635Z,4.70
2019-05-18T02:09:17.158Z,4.40
2019-05-18T02:11:45.578Z,4.40
2019-05-18T02:14:14.036Z,4.47
2019-05-18T02:16:42.542Z,4.47
2019-05-18T02:19:11.081Z,4.30
2019-05-18T02:21:39.566Z,4.50
2019-05-18T02:24:08.107Z,4.23
2019-05-18T02:26:36.609Z,4.87
2019-05-18T02:29:05.144Z,4.90
2019-05-18T02:31:33.645Z,5.00
2019-05-18T02:34:02.093Z,5.30
2019-05-18T02:36:30.522Z,4.43
2019-05-18T02:38:59.103Z,4.40
2019-05-18T02:41:27.718Z,4.13
2019-05-18T02:43:56.237Z,4.10
2019-05-18T02:46:24.723Z,3.97
2019-05-18T02:48:53.182Z,4.43
2019-05-18T02:51:21.720Z,4.37
2019-05-18T02:53:50.314Z,4.20
2019-05-18T02:56:18.818Z,4.43
2019-05-18T02:58:47.246Z,4.13
2019-05-18T03:01:15.704Z,4.60
2019-05-18T03:03:44.175Z,3.70
2019-05-18T03:06:12.608Z,4.17
2019-05-18T03:08:41.122Z,4.00
2019-05-18T03:11:09.563Z,4.27
2019-05-18T03:13:38.069Z,4.67
2019-05-18T03:16:06.601Z,4.13
2019-05-18T03:18:35.182Z,4.10
2019-05-18T03:21:03.753Z,4.30
2019-05-18T03:23:32.296Z,4.20
2019-05-18T03:26:00.726Z,3.93
2019-05-18T03:28:29.198Z,4.20
2019-05-18T03:30:57.634Z,4.03
2019-05-18T03:33:29.316Z,4.20
2019-05-18T03:35:56.279Z,4.27
2019-05-18T03:38:24.801Z,4.37
2019-05-18T03:40:53.306Z,4.30
2019-05-18T03:43:21.835Z,4.30
2019-05-18T03:45:50.285Z,4.37
2019-05-18T03:48:18.741Z,4.17
2019-05-18T03:50:47.217Z,4.03
2019-05-18T03:53:18.177Z,4.10
2019-05-18T03:55:45.828Z,3.90
2019-05-18T03:58:14.251Z,4.17
2019-05-18T04:00:43.580Z,4.47
2019-05-18T04:03:12.001Z,4.30
2019-05-18T04:05:40.468Z,4.10
2019-05-18T04:08:08.956Z,3.57
2019-05-18T04:10:37.438Z,4.40
2019-05-18T04:13:05.941Z,4.20
2019-05-18T04:15:34.357Z,4.00
2019-05-18T04:18:02.821Z,4.07
2019-05-18T04:20:31.329Z,4.03
2019-05-18T04:22:59.773Z,4.30
2019-05-18T04:25:28.209Z,3.90
2019-05-18T04:27:56.794Z,4.17
2019-05-18T04:30:25.254Z,3.93
2019-05-18T04:32:53.704Z,4.20
2019-05-18T04:35:22.168Z,4.23
2019-05-18T04:37:50.726Z,4.20
2019-05-18T04:40:19.312Z,3.90
2019-05-18T04:42:47.792Z,4.27
2019-05-18T04:45:16.433Z,4.40
2019-05-18T04:47:48.501Z,4.33
2019-05-18T04:50:16.001Z,4.03
2019-05-18T04:52:44.425Z,4.47
2019-05-18T04:55:12.952Z,4.70
2019-05-18T04:57:41.383Z,4.40
2019-05-18T05:00:10.271Z,4.43
2019-05-18T05:02:38.771Z,4.60
2019-05-18T05:05:07.223Z,4.20
2019-05-18T05:07:35.684Z,4.63
2019-05-18T05:10:06.367Z,4.97
2019-05-18T05:12:34.886Z,5.03
2019-05-18T05:15:03.429Z,5.00
2019-05-18T05:17:31.913Z,5.30
2019-05-18T05:20:00.384Z,5.30
2019-05-18T05:22:28.820Z,5.77
2019-05-18T05:24:57.385Z,5.20
2019-05-18T05:27:25.893Z,4.67
2019-05-18T05:29:54.342Z,5.20
2019-05-18T05:32:22.783Z,4.93
2019-05-18T05:34:51.233Z,5.03
2019-05-18T05:37:19.708Z,5.47
2019-05-18T05:39:48.156Z,5.40
2019-05-18T05:42:16.674Z,4.70
2019-05-18T05:44:45.364Z,4.63
2019-05-18T05:47:13.874Z,4.27
2019-05-18T05:49:42.326Z,3.77
2019-05-18T05:52:10.794Z,4.13
2019-05-18T05:54:39.275Z,4.17
2019-05-18T05:57:07.733Z,3.90
2019-05-18T05:59:36.253Z,4.07
2019-05-18T06:02:04.689Z,4.13
2019-05-18T06:04:33.118Z,3.70
2019-05-18T06:07:01.583Z,3.80
2019-05-18T06:09:30.030Z,4.33
2019-05-18T06:11:58.746Z,3.80
2019-05-18T06:14:27.232Z,4.40
2019-05-18T06:16:55.947Z,4.47
2019-05-18T06:19:24.610Z,4.07
2019-05-18T06:21:53.127Z,4.13
2019-05-18T06:24:21.556Z,3.80
2019-05-18T06:26:50.010Z,4.57
2019-05-18T06:29:18.510Z,4.33
2019-05-18T06:31:47.060Z,4.30
2019-05-18T06:34:15.599Z,4.30
2019-05-18T06:36:44.036Z,4.13
2019-05-18T06:39:12.563Z,4.27
2019-05-18T06:41:40.998Z,4.63
2019-05-18T06:44:09.980Z,4.30
2019-05-18T06:46:38.432Z,4.50
2019-05-18T06:49:07.025Z,3.87
2019-05-18T06:51:36.746Z,4.83
2019-05-18T06:54:05.233Z,4.70
2019-05-18T06:56:34.534Z,4.50
2019-05-18T06:59:03.129Z,4.13
2019-05-18T07:01:31.676Z,5.27
2019-05-18T07:04:00.183Z,4.53
2019-05-18T07:06:28.804Z,5.20
2019-05-18T07:08:58.709Z,4.77
2019-05-18T07:11:27.392Z,4.60
2019-05-18T07:13:55.817Z,4.47
2019-05-18T07:16:24.272Z,5.33
2019-05-18T07:18:52.740Z,5.10
2019-05-18T07:21:22.631Z,4.73
2019-05-18T07:23:51.308Z,4.57
2019-05-18T07:26:19.872Z,4.80
2019-05-18T07:28:48.380Z,4.73
2019-05-18T07:31:16.914Z,5.00
2019-05-18T07:33:45.342Z,4.70
2019-05-18T07:36:13.940Z,4.83
2019-05-18T07:38:42.364Z,4.93
2019-05-18T07:41:10.799Z,5.10
2019-05-18T07:43:39.319Z,4.50
2019-05-18T07:46:08.859Z,4.20
2019-05-18T07:48:37.468Z,4.90
2019-05-18T07:51:06.085Z,4.97
2019-05-18T07:53:35.245Z,5.00
2019-05-18T07:56:03.701Z,4.73
2019-05-18T07:58:32.179Z,5.03
2019-05-18T08:01:00.644Z,4.37
2019-05-18T08:03:29.095Z,5.40
2019-05-18T08:05:57.544Z,4.57
2019-05-18T08:08:25.976Z,4.90
2019-05-18T08:10:54.440Z,5.30
2019-05-18T08:13:22.890Z,5.53
2019-05-18T08:15:51.365Z,4.90
2019-05-18T08:18:19.853Z,5.53
2019-05-18T08:20:48.422Z,5.03
2019-05-18T08:23:16.988Z,5.40
2019-05-18T08:25:45.478Z,5.60
2019-05-18T08:28:13.964Z,6.10
2019-05-18T08:30:42.378Z,5.60
2019-05-18T08:33:10.854Z,6.30
2019-05-18T08:35:39.359Z,6.23
2019-05-18T08:38:07.810Z,5.33
2019-05-18T08:40:36.246Z,6.00
2019-05-18T08:43:04.776Z,6.10
2019-05-18T08:45:33.235Z,6.00
2019-05-18T08:48:01.833Z,7.43
2019-05-18T08:50:30.279Z,7.30
2019-05-18T08:52:58.744Z,7.13
2019-05-18T08:55:28.911Z,7.57
2019-05-18T08:57:57.464Z,6.77
2019-05-18T09:00:25.970Z,7.57
2019-05-18T09:02:54.688Z,6.37
2019-05-18T09:05:23.289Z,6.53
2019-05-18T09:07:51.782Z,6.63
2019-05-18T09:10:20.376Z,6.07
2019-05-18T09:12:48.833Z,5.80
2019-05-18T09:15:17.954Z,6.53
2019-05-18T09:17:46.454Z,5.80
2019-05-18T09:20:15.298Z,6.90
2019-05-18T09:22:43.768Z,7.00
2019-05-18T09:25:12.558Z,6.83
2019-05-18T09:27:41.012Z,14.07
2019-05-18T09:30:10.608Z,6.73
2019-05-18T09:32:39.176Z,7.13
2019-05-18T09:35:09.253Z,6.57
2019-05-18T09:37:37.806Z,6.03
2019-05-18T09:40:08.238Z,6.17
2019-05-18T09:42:36.735Z,5.80
2019-05-18T09:45:07.745Z,5.93
2019-05-18T09:47:36.270Z,6.63
2019-05-18T09:50:05.828Z,6.40
2019-05-18T09:52:44.669Z,5.73
2019-05-18T09:55:07.089Z,6.20
2019-05-18T09:57:35.692Z,5.77
2019-05-18T10:00:07.366Z,6.07
2019-05-18T10:02:35.857Z,6.03
2019-05-18T10:05:05.476Z,5.87
2019-05-18T10:07:34.004Z,6.13
2019-05-18T10:10:02.732Z,5.50
2019-05-18T10:12:31.180Z,6.10
2019-05-18T10:14:59.608Z,5.70
2019-05-18T10:17:28.073Z,6.27
2019-05-18T10:19:56.681Z,5.90
2019-05-18T10:22:25.172Z,6.13
2019-05-18T10:24:53.676Z,5.60
2019-05-18T10:27:22.235Z,5.90
2019-05-18T10:29:50.813Z,5.60
2019-05-18T10:32:19.401Z,5.73
2019-05-18T10:34:47.915Z,6.30
2019-05-18T10:37:16.547Z,6.93
2019-05-18T10:39:46.713Z,6.27
2019-05-18T10:42:15.273Z,6.83
2019-05-18T10:44:45.357Z,6.83
2019-05-18T10:47:13.893Z,7.77
2019-05-18T10:49:42.515Z,6.80
2019-05-18T10:52:11.141Z,6.20
2019-05-18T10:54:39.685Z,6.03
2019-05-18T10:57:08.322Z,6.60
2019-05-18T10:59:39.017Z,5.90
2019-05-18T11:02:07.677Z,5.97
2019-05-18T11:04:41.614Z,5.57
2019-05-18T11:07:10.155Z,5.47
2019-05-18T11:09:40.429Z,5.83
2019-05-18T11:12:12.782Z,5.53
2019-05-18T11:14:42.869Z,5.27
2019-05-18T11:17:11.427Z,6.30
2019-05-18T11:19:40.073Z,6.00
2019-05-18T11:22:08.594Z,6.33
2019-05-18T11:24:37.176Z,6.43
2019-05-18T11:27:05.658Z,6.50
2019-05-18T11:29:35.957Z,5.43
2019-05-18T11:32:04.593Z,5.67
2019-05-18T11:34:33.215Z,5.70
2019-05-18T11:37:03.222Z,5.90
2019-05-18T11:39:32.084Z,6.57
2019-05-18T11:42:00.549Z,6.30
2019-05-18T11:44:29.178Z,5.50
2019-05-18T11:46:57.900Z,6.40
2019-05-18T11:49:29.091Z,6.30
2019-05-18T11:51:56.679Z,6.17
2019-05-18T11:54:25.117Z,5.63
2019-05-18T11:56:53.573Z,5.90
2019-05-18T11:59:22.193Z,5.40
2019-05-18T12:01:50.718Z,5.27
2019-05-18T12:04:19.240Z,4.70
2019-05-18T12:06:49.160Z,6.07
2019-05-18T12:09:17.735Z,7.57
2019-05-18T12:11:46.177Z,6.93
2019-05-18T12:14:14.627Z,6.77
2019-05-18T12:16:43.081Z,5.83
2019-05-18T12:19:11.598Z,5.17
2019-05-18T12:21:40.228Z,4.90
2019-05-18T12:24:15.609Z,4.77
2019-05-18T12:26:38.859Z,4.43
2019-05-18T12:29:07.313Z,3.87
2019-05-18T12:31:35.969Z,3.93
2019-05-18T12:34:04.465Z,4.37
2019-05-18T12:36:33.035Z,3.93
2019-05-18T12:39:01.544Z,3.80
2019-05-18T12:41:30.031Z,4.37
2019-05-18T12:43:58.849Z,4.03
2019-05-18T12:46:27.390Z,4.63
2019-05-18T12:48:55.856Z,4.53
2019-05-18T12:51:24.383Z,5.37
2019-05-18T12:53:52.815Z,4.70
2019-05-18T12:56:21.549Z,4.73
2019-05-18T12:58:50.043Z,5.13
2019-05-18T13:01:18.576Z,5.00
2019-05-18T13:03:47.331Z,4.77
2019-05-18T13:06:15.928Z,4.93
2019-05-18T13:08:44.370Z,4.80
2019-05-18T13:11:13.031Z,5.00
2019-05-18T13:13:41.572Z,5.70
2019-05-18T13:16:10.027Z,5.30
2019-05-18T13:18:38.805Z,5.70
2019-05-18T13:21:07.440Z,6.07
2019-05-18T13:23:37.544Z,5.33
2019-05-18T13:26:17.565Z,6.07
2019-05-18T13:28:43.505Z,4.97
2019-05-18T13:31:11.955Z,5.37
2019-05-18T13:33:40.440Z,5.30
2019-05-18T13:36:08.864Z,5.00
2019-05-18T13:38:37.319Z,5.00
2019-05-18T13:41:05.810Z,5.03
2019-05-18T13:43:34.256Z,5.17
2019-05-18T13:46:02.690Z,4.73
2019-05-18T13:48:31.156Z,5.30
2019-05-18T13:50:59.668Z,5.57
2019-05-18T13:53:28.102Z,6.17
2019-05-18T13:55:56.565Z,6.00
2019-05-18T13:58:24.993Z,5.53
2019-05-18T14:00:53.655Z,4.70
2019-05-18T14:03:22.158Z,3.50
2019-05-18T14:05:50.638Z,3.70
2019-05-18T14:08:19.087Z,3.00
2019-05-18T14:10:47.622Z,3.17
2019-05-18T14:13:16.071Z,3.50
2019-05-18T14:15:44.679Z,3.47
2019-05-18T14:18:13.180Z,4.23
2019-05-18T14:20:41.880Z,4.13
2019-05-18T14:23:12.089Z,3.50
2019-05-18T14:25:49.583Z,3.07
2019-05-18T14:28:18.169Z,3.53
2019-05-18T14:30:51.295Z,3.00
2019-05-18T14:33:21.026Z,3.13
2019-05-18T14:35:49.616Z,2.90
2019-05-18T14:38:18.212Z,2.50
2019-05-18T14:40:51.586Z,2.93
2019-05-18T14:43:20.200Z,2.83
2019-05-18T14:45:55.788Z,2.77
2019-05-18T14:48:24.331Z,2.63
2019-05-18T14:50:52.848Z,2.70
2019-05-18T14:53:21.605Z,2.30
2019-05-18T14:55:50.515Z,2.77
2019-05-18T14:58:19.077Z,2.67
2019-05-18T15:00:47.607Z,2.67
2019-05-18T15:03:16.299Z,2.17
2019-05-18T15:05:44.810Z,2.40
2019-05-18T15:08:13.471Z,2.30
2019-05-18T15:10:50.385Z,2.20
2019-05-18T15:13:26.190Z,1.83
2019-05-18T15:15:59.025Z,2.20
2019-05-18T15:18:29.143Z,2.03
2019-05-18T15:21:00.661Z,2.30
2019-05-18T15:23:29.341Z,2.20
2019-05-18T15:25:58.869Z,2.60
2019-05-18T15:28:27.522Z,2.63
2019-05-18T15:30:56.071Z,2.20
2019-05-18T15:33:24.625Z,2.10
2019-05-18T15:35:53.066Z,2.50
2019-05-18T15:38:24.899Z,2.50
2019-05-18T15:40:53.414Z,2.77
2019-05-18T15:43:21.899Z,2.50
2019-05-18T15:45:52.112Z,2.43
2019-05-18T15:48:20.650Z,2.40
2019-05-18T18:27:58.093Z,2.47
2019-05-18T18:30:26.741Z,2.43
2019-05-18T18:32:55.268Z,2.27
2019-05-18T18:35:23.818Z,2.30
2019-05-18T18:37:52.289Z,2.10
2019-05-18T18:40:22.058Z,2.30
2019-05-18T18:42:50.565Z,2.60
2019-05-18T18:45:19.191Z,2.40
2019-05-18T18:47:47.690Z,4.57
2019-05-18T18:50:16.660Z,5.03
2019-05-18T23:03:13.784Z,4.10
2019-05-18T23:05:42.484Z,4.03
2019-05-18T23:08:10.994Z,3.93
2019-05-18T23:10:39.502Z,4.07
2019-05-18T23:13:07.948Z,4.40
2019-05-18T23:15:36.517Z,4.10
2019-05-18T23:18:05.015Z,4.03
2019-05-18T23:20:33.524Z,3.73
2019-05-18T23:23:02.112Z,3.83
2019-05-18T23:25:30.601Z,3.93
2019-05-18T23:27:59.108Z,3.73
2019-05-18T23:30:27.675Z,5.27
2019-05-18T23:32:56.152Z,3.33
2019-05-18T23:35:24.697Z,3.40
2019-05-18T23:37:53.277Z,3.03
2019-05-18T23:40:21.892Z,3.10
2019-05-18T23:42:53.391Z,3.47
2019-05-18T23:45:21.874Z,3.60
2019-05-18T23:47:51.503Z,3.90
2019-05-18T23:50:20.094Z,3.60
2019-05-18T23:52:48.562Z,3.60
2019-05-18T23:55:17.226Z,3.90
2019-05-18T23:57:45.696Z,3.73
